Time;durP1;ratioP1;P1;durP2;ratioP2;P2;SDS_P1;SDS_P2;PMS_P1;PMS_P2;Temp;Humidity;BMP_temperature;BMP_pressure;BME280_temperature;BME280_humidity;BME280_pressure;Samples;Min_cycle;Max_cycle;Signal;HPM_P1;HPM_P2
2021/04/13 00:02:21;;;;;;;8.83;5.20;;;2.70;99.90;;;;;;5032611;28;20180;-68
2021/04/13 00:05:11;;;;;;;5.93;5.33;;;2.60;99.90;;;;;;5032515;28;20516;-68
2021/04/13 00:07:41;;;;;;;5.23;4.73;;;2.60;99.90;;;;;;5032242;28;20453;-68
2021/04/13 00:10:18;;;;;;;8.10;5.13;;;2.60;99.90;;;;;;5032286;28;20454;-68
2021/04/13 00:12:45;;;;;;;5.30;4.80;;;2.70;99.90;;;;;;5032462;28;20426;-68
2021/04/13 00:15:14;;;;;;;6.50;5.90;;;2.60;99.90;;;;;;5032082;28;20512;-68
2021/04/13 00:17:43;;;;;;;5.57;5.00;;;2.60;99.90;;;;;;5032357;28;20468;-68
2021/04/13 00:20:19;;;;;;;5.97;5.43;;;2.60;99.90;;;;;;5030489;28;20429;-68
2021/04/13 00:22:46;;;;;;;6.07;5.47;;;2.50;99.90;;;;;;5032272;28;20420;-68
2021/04/13 00:25:37;;;;;;;8.13;5.20;;;2.40;99.90;;;;;;5032197;28;20519;-68
2021/04/13 00:28:04;;;;;;;6.70;4.53;;;2.40;99.90;;;;;;5030795;28;20456;-68
2021/04/13 00:30:45;;;;;;;4.90;4.50;;;2.40;99.90;;;;;;5032325;28;20441;-68
2021/04/13 00:33:15;;;;;;;4.97;4.57;;;2.40;99.90;;;;;;5031442;28;20444;-68
2021/04/13 00:36:08;;;;;;;6.17;5.07;;;2.40;99.90;;;;;;5032071;28;20846;-68
2021/04/13 00:38:33;;;;;;;5.57;4.97;;;2.40;99.90;;;;;;5021444;28;20531;-68
2021/04/13 00:41:07;;;;;;;5.30;4.90;;;2.30;99.90;;;;;;5031849;28;20511;-68
2021/04/13 00:43:34;;;;;;;6.60;6.03;;;2.20;99.90;;;;;;5031750;28;20428;-68
2021/04/13 00:46:00;;;;;;;6.60;4.80;;;2.20;99.90;;;;;;5031516;28;20436;-68
2021/04/13 00:48:29;;;;;;;5.80;5.30;;;2.20;99.90;;;;;;5031686;28;20460;-68
2021/04/13 00:51:02;;;;;;;5.47;5.07;;;2.20;99.90;;;;;;5031678;28;20435;-68
2021/04/13 00:53:32;;;;;;;5.87;5.37;;;2.20;99.90;;;;;;5031857;28;20956;-68
2021/04/13 00:56:04;;;;;;;5.30;4.80;;;2.30;99.90;;;;;;5031715;28;20942;-68
2021/04/13 00:58:45;;;;;;;5.07;4.57;;;2.40;99.90;;;;;;5032070;28;20461;-66
2021/04/13 01:01:25;;;;;;;5.60;5.10;;;2.40;99.90;;;;;;5031090;28;20433;-68
2021/04/13 01:04:15;;;;;;;5.63;5.13;;;2.40;99.90;;;;;;5031250;28;20435;-68
2021/04/13 01:06:41;;;;;;;6.23;4.87;;;2.50;99.90;;;;;;5031495;28;20453;-66
2021/04/13 01:09:10;;;;;;;7.97;5.27;;;2.50;99.90;;;;;;5031127;28;20835;-69
2021/04/13 01:11:46;;;;;;;5.70;5.20;;;2.60;99.90;;;;;;5031037;28;20520;-66
2021/04/13 01:14:13;;;;;;;5.17;4.70;;;2.60;99.90;;;;;;5030194;28;20447;-67
2021/04/13 01:16:46;;;;;;;5.43;4.90;;;2.60;99.90;;;;;;5030979;28;20547;-67
2021/04/13 01:19:17;;;;;;;5.17;4.60;;;2.70;99.90;;;;;;5031329;28;20559;-68
2021/04/13 01:22:17;;;;;;;9.40;6.07;;;2.70;99.90;;;;;;5030864;28;20800;-68
2021/04/13 01:24:52;;;;;;;6.13;5.53;;;2.60;99.90;;;;;;5027265;28;20437;-68
2021/04/13 01:27:20;;;;;;;8.03;6.20;;;2.70;99.90;;;;;;5018217;28;20463;-67
2021/04/13 01:29:47;;;;;;;5.53;5.03;;;2.60;99.90;;;;;;5030857;28;20860;-67
2021/04/13 01:32:16;;;;;;;6.53;5.80;;;2.60;99.90;;;;;;5031059;28;20440;-67
2021/04/13 01:34:54;;;;;;;6.10;5.50;;;2.60;99.90;;;;;;5030879;28;20437;-66
2021/04/13 01:37:37;;;;;;;6.50;5.77;;;2.50;99.90;;;;;;5030970;28;20538;-69
2021/04/13 01:42:39;;;;;;;7.53;6.83;;;2.50;99.90;;;;;;5030675;28;20420;-67
2021/04/13 01:45:08;;;;;;;6.83;5.70;;;2.40;99.90;;;;;;5029747;28;20436;-69
2021/04/13 01:47:35;;;;;;;5.83;5.30;;;2.30;99.90;;;;;;5030593;28;20445;-69
2021/04/13 01:50:13;;;;;;;5.83;5.33;;;2.20;99.90;;;;;;5030306;28;20436;-70
2021/04/13 01:52:42;;;;;;;6.37;5.83;;;2.20;99.90;;;;;;5030633;28;20810;-69
2021/04/13 01:55:22;;;;;;;7.77;6.00;;;2.20;99.90;;;;;;5020165;28;20483;-68
2021/04/13 01:57:56;;;;;;;5.20;4.70;;;2.20;99.90;;;;;;5020059;28;20468;-67
2021/04/13 02:00:31;;;;;;;5.80;5.30;;;2.20;99.90;;;;;;5029354;28;20949;-69
2021/04/13 02:03:11;;;;;;;5.50;4.73;;;2.20;99.90;;;;;;5030605;28;20753;-66
2021/04/13 02:05:40;;;;;;;9.03;5.47;;;2.20;99.90;;;;;;5030843;28;20962;-68
2021/04/13 02:08:27;;;;;;;6.27;5.67;;;2.10;99.90;;;;;;5030439;28;20463;-68
2021/04/13 02:11:08;;;;;;;6.00;5.50;;;2.10;99.90;;;;;;5030028;28;20976;-67
2021/04/13 02:13:59;;;;;;;6.13;5.53;;;2.00;99.90;;;;;;5030653;28;20432;-68
2021/04/13 02:16:37;;;;;;;7.40;6.67;;;2.00;99.90;;;;;;5021794;28;20525;-67
2021/04/13 02:19:07;;;;;;;6.97;6.27;;;2.00;99.90;;;;;;5030053;28;20491;-67
2021/04/13 02:21:41;;;;;;;8.90;6.80;;;2.00;99.90;;;;;;5030066;28;20949;-67
2021/04/13 02:24:12;;;;;;;6.73;6.07;;;2.00;99.90;;;;;;5030574;28;20938;-68
2021/04/13 02:26:44;;;;;;;6.83;6.17;;;2.00;99.90;;;;;;5030354;28;20492;-68
2021/04/13 02:29:10;;;;;;;5.83;5.33;;;1.90;99.90;;;;;;5029888;28;20444;-67
2021/04/13 02:31:37;;;;;;;7.40;6.70;;;1.90;99.90;;;;;;5030228;28;20432;-68
2021/04/13 02:34:40;;;;;;;6.67;6.07;;;1.70;99.90;;;;;;5030195;28;20433;-68
2021/04/13 02:37:27;;;;;;;7.70;6.97;;;1.70;99.90;;;;;;5020201;28;20456;-68
2021/04/13 02:39:56;;;;;;;5.80;5.27;;;1.70;99.90;;;;;;5018660;28;20433;-68
2021/04/13 02:42:24;;;;;;;6.60;5.90;;;1.70;99.90;;;;;;5030238;28;20503;-67
2021/04/13 02:44:59;;;;;;;7.20;6.10;;;1.70;99.90;;;;;;5029840;28;20432;-67
2021/04/13 02:47:26;;;;;;;7.37;6.60;;;1.60;99.90;;;;;;5027901;28;20452;-68
2021/04/13 02:49:54;;;;;;;8.07;7.40;;;1.60;99.90;;;;;;5028661;28;20481;-67
2021/04/13 02:52:30;;;;;;;7.50;6.20;;;1.60;99.90;;;;;;5030136;28;20973;-68
2021/04/13 02:54:59;;;;;;;10.83;6.90;;;1.60;99.90;;;;;;5030288;28;20429;-68
2021/04/13 02:57:28;;;;;;;7.03;6.43;;;1.60;99.90;;;;;;5033494;28;20830;-67
2021/04/13 03:00:08;;;;;;;7.33;6.60;;;1.60;99.90;;;;;;5033326;28;20429;-68
2021/04/13 03:02:47;;;;;;;8.07;6.40;;;1.50;99.90;;;;;;5034003;28;20503;-68
2021/04/13 03:05:20;;;;;;;6.63;5.93;;;1.50;99.90;;;;;;5032926;28;20416;-67
2021/04/13 03:07:47;;;;;;;7.70;7.00;;;1.50;99.90;;;;;;5033619;28;20968;-68
2021/04/13 03:10:15;;;;;;;11.00;7.60;;;1.60;99.90;;;;;;5032804;28;20428;-67
2021/04/13 03:12:45;;;;;;;7.93;7.13;;;1.60;99.90;;;;;;5032229;28;20428;-67
2021/04/13 03:15:16;;;;;;;7.03;5.70;;;1.60;99.90;;;;;;5033861;28;20428;-68
2021/04/13 03:18:01;;;;;;;6.77;6.07;;;1.70;99.90;;;;;;5033195;28;20506;-67
2021/04/13 03:20:31;;;;;;;10.13;7.87;;;1.70;99.90;;;;;;5029941;28;20428;-68
2021/04/13 03:23:00;;;;;;;11.70;6.40;;;1.90;99.90;;;;;;5030660;28;20788;-68
2021/04/13 03:25:34;;;;;;;6.70;6.10;;;1.90;99.90;;;;;;5033519;28;20516;-67
2021/04/13 03:28:01;;;;;;;11.50;7.00;;;2.00;99.90;;;;;;5033637;28;20788;-67
2021/04/13 03:30:31;;;;;;;7.30;6.03;;;1.90;99.90;;;;;;5033413;28;20490;-67
2021/04/13 03:33:05;;;;;;;7.60;6.80;;;2.00;99.90;;;;;;5033033;28;20473;-67
2021/04/13 03:35:32;;;;;;;7.83;7.10;;;2.10;99.90;;;;;;5032764;28;20443;-67
2021/04/13 03:38:00;;;;;;;6.77;6.00;;;2.00;99.90;;;;;;5033041;28;20463;-67
2021/04/13 03:40:28;;;;;;;7.67;6.83;;;2.00;99.90;;;;;;5033046;28;20432;-68
2021/04/13 03:42:59;;;;;;;7.33;6.23;;;1.90;99.90;;;;;;5032927;28;20429;-67
2021/04/13 03:45:26;;;;;;;6.90;6.20;;;1.90;99.90;;;;;;5032808;28;20456;-67
2021/04/13 03:47:52;;;;;;;7.00;6.40;;;1.90;99.90;;;;;;5032873;28;20532;-68
2021/04/13 03:50:28;;;;;;;6.37;5.77;;;1.80;99.90;;;;;;5032568;28;20468;-68
2021/04/13 03:53:10;;;;;;;8.17;7.37;;;1.80;99.90;;;;;;5032845;28;20436;-68
2021/04/13 03:55:36;;;;;;;8.33;7.17;;;1.70;99.90;;;;;;5019330;28;20476;-67
2021/04/13 03:58:23;;;;;;;6.97;5.80;;;1.60;99.90;;;;;;5032394;28;20480;-67
2021/04/13 04:00:50;;;;;;;9.53;7.23;;;1.60;99.90;;;;;;5032444;28;20175;-67
2021/04/13 04:03:16;;;;;;;7.03;6.33;;;1.50;99.90;;;;;;5032745;28;20433;-68
2021/04/13 04:05:56;;;;;;;7.53;6.83;;;1.50;99.90;;;;;;5032631;28;20511;-67
2021/04/13 04:08:40;;;;;;;8.07;6.90;;;1.40;99.90;;;;;;5031434;28;20202;-68
2021/04/13 04:11:07;;;;;;;9.53;6.30;;;1.40;99.90;;;;;;5032370;28;20964;-67
2021/04/13 04:13:37;;;;;;;11.10;6.80;;;1.50;99.90;;;;;;5032597;28;20431;-68
2021/04/13 04:16:12;;;;;;;8.70;7.80;;;1.40;99.90;;;;;;5032362;28;20424;-67
2021/04/13 04:18:37;;;;;;;7.83;7.00;;;1.40;99.90;;;;;;5031943;28;20464;-69
2021/04/13 04:21:40;;;;;;;9.30;7.37;;;1.40;99.90;;;;;;5032344;28;20651;-68
2021/04/13 04:24:26;;;;;;;6.70;6.10;;;1.40;99.90;;;;;;5022489;28;20181;-68
2021/04/13 04:26:56;;;;;;;8.60;7.30;;;1.30;99.90;;;;;;5032368;28;20902;-70
2021/04/13 04:29:31;;;;;;;8.63;7.73;;;1.20;99.90;;;;;;5032186;28;20469;-67
2021/04/13 04:32:14;;;;;;;7.57;6.67;;;1.10;99.90;;;;;;5031628;28;20436;-66
2021/04/13 04:34:47;;;;;;;7.73;6.93;;;1.10;99.90;;;;;;5032267;28;20429;-67
2021/04/13 04:37:21;;;;;;;7.80;7.00;;;1.10;99.90;;;;;;5028374;28;20818;-67
2021/04/13 04:39:47;;;;;;;7.77;6.97;;;1.10;99.90;;;;;;5032072;28;20467;-68
2021/04/13 04:42:27;;;;;;;8.80;7.33;;;1.20;99.90;;;;;;5032068;28;20930;-68
2021/04/13 04:45:16;;;;;;;9.93;7.40;;;1.20;99.90;;;;;;5022310;28;20208;-66
2021/04/13 04:47:43;;;;;;;7.83;7.03;;;1.30;99.90;;;;;;5031448;28;20444;-67
2021/04/13 04:50:15;;;;;;;11.87;8.93;;;1.30;99.90;;;;;;5030317;28;20425;-67
2021/04/13 04:52:41;;;;;;;10.40;8.73;;;1.40;99.90;;;;;;5031954;28;20420;-67
2021/04/13 04:55:08;;;;;;;9.50;8.50;;;1.40;99.90;;;;;;5031843;28;20512;-68
2021/04/13 04:57:34;;;;;;;11.10;9.37;;;1.40;99.90;;;;;;5031523;28;20216;-68
2021/04/13 04:59:59;;;;;;;12.40;8.60;;;1.30;99.90;;;;;;5029173;28;20425;-68
2021/04/13 05:02:25;;;;;;;13.80;10.73;;;1.30;99.90;;;;;;5031380;28;20174;-68
2021/04/13 05:04:51;;;;;;;15.73;9.47;;;1.30;99.90;;;;;;5031832;28;20201;-68
2021/04/13 05:07:17;;;;;;;11.10;9.50;;;1.30;99.90;;;;;;5029469;28;20191;-68
2021/04/13 05:09:42;;;;;;;11.63;8.83;;;1.30;99.90;;;;;;5028245;28;20494;-69
2021/04/13 05:12:08;;;;;;;15.70;9.73;;;1.30;99.90;;;;;;5031463;28;20282;-67
2021/04/13 05:14:34;;;;;;;12.33;8.50;;;1.40;99.90;;;;;;5031567;28;20177;-68
2021/04/13 05:17:00;;;;;;;11.70;8.03;;;1.50;99.90;;;;;;5028905;28;20464;-67
2021/04/13 05:19:25;;;;;;;10.87;8.00;;;1.50;99.90;;;;;;5019498;28;20827;-70
2021/04/13 05:21:51;;;;;;;12.17;10.87;;;1.50;99.90;;;;;;5030697;28;20185;-68
2021/04/13 05:24:16;;;;;;;11.23;9.00;;;1.50;99.90;;;;;;5025655;28;20188;-67
2021/04/13 05:26:42;;;;;;;9.60;8.60;;;1.60;99.90;;;;;;5022087;28;20216;-68
2021/04/13 05:29:08;;;;;;;11.93;9.80;;;1.80;99.90;;;;;;5030994;28;20185;-68
2021/04/13 05:31:35;;;;;;;22.03;10.03;;;1.90;99.90;;;;;;5030332;28;20543;-68
2021/04/13 05:34:00;;;;;;;11.13;9.60;;;2.20;99.90;;;;;;5030728;28;20189;-68
2021/04/13 05:36:26;;;;;;;10.23;9.00;;;2.30;99.90;;;;;;5031232;28;20433;-68
2021/04/13 05:38:53;;;;;;;11.70;9.10;;;2.40;99.90;;;;;;5030832;28;20202;-68
2021/04/13 05:41:19;;;;;;;13.53;9.23;;;2.60;99.90;;;;;;5030555;28;20522;-69
2021/04/13 05:43:45;;;;;;;9.83;8.47;;;2.70;99.90;;;;;;5031080;28;20954;-68
2021/04/13 05:46:20;;;;;;;11.10;9.60;;;2.90;99.90;;;;;;5030718;28;20261;-69
2021/04/13 05:48:45;;;;;;;15.33;10.57;;;3.10;99.90;;;;;;5030752;28;20465;-69
2021/04/13 05:51:11;;;;;;;11.07;9.37;;;3.20;99.90;;;;;;5030671;28;20464;-68
2021/04/13 05:53:37;;;;;;;17.87;9.80;;;3.40;99.90;;;;;;5030980;28;20178;-68
2021/04/13 05:56:03;;;;;;;11.10;9.77;;;3.50;99.90;;;;;;5031026;28;20801;-67
2021/04/13 05:58:34;;;;;;;12.93;10.63;;;3.60;99.90;;;;;;5029047;28;20223;-68
2021/04/13 06:01:05;;;;;;;12.10;9.77;;;3.70;99.90;;;;;;5030594;28;21215;-67
2021/04/13 06:03:32;;;;;;;10.93;9.80;;;3.90;99.90;;;;;;5025079;28;20460;-67
2021/04/13 06:05:57;;;;;;;11.07;9.20;;;4.00;99.90;;;;;;5030104;28;20433;-69
2021/04/13 06:08:24;;;;;;;12.37;9.93;;;4.20;99.90;;;;;;5015670;28;20452;-68
2021/04/13 06:10:52;;;;;;;11.90;10.10;;;4.50;99.90;;;;;;5019076;28;20304;-70
2021/04/13 06:13:18;;;;;;;9.83;8.70;;;4.80;99.90;;;;;;5030344;28;20429;-69
2021/04/13 06:15:44;;;;;;;10.53;9.43;;;5.00;99.90;;;;;;5029900;28;20464;-69
2021/04/13 06:18:10;;;;;;;9.57;8.50;;;5.30;99.90;;;;;;5030353;28;20216;-68
2021/04/13 06:20:35;;;;;;;15.43;10.60;;;5.50;99.90;;;;;;5030254;28;20208;-67
2021/04/13 06:23:01;;;;;;;10.33;9.30;;;5.70;99.90;;;;;;5022973;28;20632;-68
2021/04/13 06:25:30;;;;;;;9.87;9.07;;;5.80;99.90;;;;;;5024980;28;20552;-69
2021/04/13 06:27:56;;;;;;;11.17;10.10;;;5.90;99.90;;;;;;5029718;28;20539;-68
2021/04/13 06:30:24;;;;;;;10.00;9.10;;;6.10;99.90;;;;;;5030736;28;20523;-68
2021/04/13 06:32:51;;;;;;;12.10;10.90;;;6.20;99.90;;;;;;5032414;28;20515;-68
2021/04/13 06:35:18;;;;;;;12.67;11.47;;;6.30;99.90;;;;;;5033937;28;20444;-68
2021/04/13 06:37:45;;;;;;;10.53;9.63;;;6.50;99.90;;;;;;5032818;28;20803;-69
2021/04/13 06:40:37;;;;;;;10.90;9.90;;;6.60;99.90;;;;;;5033948;28;20850;-70
2021/04/13 06:43:06;;;;;;;11.63;8.80;;;6.70;99.90;;;;;;4989569;28;20911;-69
2021/04/13 06:46:23;;;;;;;9.77;8.97;;;6.60;99.90;;;;;;5031765;28;20952;-69
2021/04/13 06:49:27;;;;;;;9.87;8.97;;;6.50;99.90;;;;;;5008428;28;20447;-69
2021/04/13 06:52:26;;;;;;;11.00;10.00;;;6.70;99.90;;;;;;4994025;28;20437;-68
2021/04/13 06:55:24;;;;;;;11.30;10.07;;;7.10;99.90;;;;;;5025165;28;20431;-69
2021/04/13 06:58:33;;;;;;;10.33;9.33;;;7.50;99.90;;;;;;5033215;28;20463;-68
2021/04/13 07:01:20;;;;;;;11.70;10.63;;;7.60;99.90;;;;;;5032229;28;20429;-69
2021/04/13 07:03:57;;;;;;;9.77;8.87;;;7.80;99.90;;;;;;5033745;28;20471;-68
2021/04/13 07:06:38;;;;;;;12.07;10.97;;;7.70;99.90;;;;;;5018954;28;21004;-68
2021/04/13 07:09:15;;;;;;;12.87;11.77;;;7.60;99.90;;;;;;5033533;28;20417;-69
2021/04/13 07:11:51;;;;;;;12.27;11.27;;;7.60;99.90;;;;;;5033143;28;20839;-68
2021/04/13 07:14:25;;;;;;;11.80;10.70;;;7.50;99.90;;;;;;5020193;28;20465;-68
2021/04/13 07:17:25;;;;;;;12.27;11.00;;;7.30;99.90;;;;;;5033051;28;20460;-68
2021/04/13 07:19:58;;;;;;;10.80;9.63;;;7.20;99.90;;;;;;4981769;28;20475;-68
2021/04/13 07:22:36;;;;;;;14.60;10.80;;;7.20;99.90;;;;;;5034583;28;20532;-68
2021/04/13 07:25:19;;;;;;;13.13;11.93;;;7.30;99.90;;;;;;5033396;28;20444;-67
2021/04/13 07:27:54;;;;;;;11.80;10.67;;;7.40;99.90;;;;;;5032056;28;20456;-67
2021/04/13 07:30:44;;;;;;;10.30;9.50;;;7.40;99.90;;;;;;5050047;28;20442;-68
2021/04/13 07:33:15;;;;;;;11.73;10.73;;;7.40;99.90;;;;;;5033118;28;20432;-68
2021/04/13 07:35:40;;;;;;;12.17;10.97;;;7.30;99.90;;;;;;5035905;28;20444;-68
2021/04/13 07:38:11;;;;;;;12.73;11.60;;;7.60;99.90;;;;;;5034213;28;20563;-68
2021/04/13 07:40:40;;;;;;;12.57;11.47;;;7.80;99.90;;;;;;5042104;28;20695;-68
2021/04/13 07:43:19;;;;;;;12.73;11.63;;;7.90;99.90;;;;;;5032807;28;20428;-68
2021/04/13 07:45:53;;;;;;;12.73;11.53;;;8.10;99.90;;;;;;5033056;28;20818;-68
2021/04/13 07:48:19;;;;;;;12.03;10.67;;;8.00;99.90;;;;;;5036503;28;20447;-68
2021/04/13 07:51:16;;;;;;;11.47;10.50;;;7.90;99.90;;;;;;5032969;28;20448;-68
2021/04/13 07:54:06;;;;;;;12.30;11.20;;;8.00;99.90;;;;;;5027483;28;20494;-67
2021/04/13 07:56:31;;;;;;;11.60;10.53;;;8.00;99.90;;;;;;5028455;28;20484;-68
2021/04/13 07:59:05;;;;;;;11.70;10.70;;;7.80;99.90;;;;;;5021991;28;20476;-68
2021/04/13 08:01:31;;;;;;;17.23;11.33;;;7.60;99.90;;;;;;5025202;28;20284;-68
2021/04/13 08:03:56;;;;;;;12.50;11.40;;;7.50;99.90;;;;;;5031213;28;20452;-68
2021/04/13 08:06:28;;;;;;;13.37;12.07;;;7.30;99.90;;;;;;5025096;28;20185;-68
2021/04/13 08:09:18;;;;;;;13.83;12.43;;;7.00;99.90;;;;;;5027756;28;20187;-67
2021/04/13 08:12:08;;;;;;;13.57;12.33;;;6.80;99.90;;;;;;5032446;28;20523;-68
2021/04/13 08:14:37;;;;;;;14.00;12.60;;;6.80;99.90;;;;;;5030050;28;20511;-68
2021/04/13 08:17:23;;;;;;;15.30;13.90;;;6.80;99.90;;;;;;5024627;28;20465;-68
2021/04/13 08:20:01;;;;;;;15.87;13.53;;;6.90;99.90;;;;;;5030294;28;20467;-68
2021/04/13 08:22:28;;;;;;;19.20;15.10;;;6.90;99.90;;;;;;5026749;28;20428;-68
2021/04/13 08:24:58;;;;;;;14.50;13.10;;;6.80;99.90;;;;;;5025462;28;20934;-68
2021/04/13 08:27:44;;;;;;;14.27;12.97;;;6.80;99.90;;;;;;5027648;28;20455;-69
2021/04/13 08:30:45;;;;;;;12.07;10.77;;;6.80;99.90;;;;;;5026890;28;20468;-69
2021/04/13 08:33:26;;;;;;;9.90;8.90;;;6.50;99.90;;;;;;5029272;28;20497;-67
2021/04/13 08:36:22;;;;;;;7.67;6.80;;;6.10;99.90;;;;;;5025465;28;20447;-68
2021/04/13 08:39:10;;;;;;;6.93;6.43;;;5.70;99.90;;;;;;5029654;28;20498;-68
2021/04/13 08:41:36;;;;;;;7.53;6.70;;;5.60;99.90;;;;;;5018041;28;20540;-69
2021/04/13 08:44:14;;;;;;;9.50;8.60;;;5.70;99.90;;;;;;5022912;28;20433;-68
2021/04/13 08:46:59;;;;;;;10.67;9.57;;;5.70;99.90;;;;;;5022024;28;20551;-68
2021/04/13 08:49:50;;;;;;;13.53;11.90;;;5.70;99.90;;;;;;5021365;28;20433;-68
2021/04/13 08:52:37;;;;;;;15.00;13.57;;;5.90;99.90;;;;;;5029915;28;20434;-67
2021/04/13 08:55:13;;;;;;;15.73;13.87;;;6.10;99.90;;;;;;5025508;28;20534;-67
2021/04/13 08:57:43;;;;;;;15.83;14.23;;;6.30;99.90;;;;;;5023741;28;20456;-68
2021/04/13 09:00:31;;;;;;;15.13;13.23;;;6.30;99.90;;;;;;5025225;28;20452;-68
2021/04/13 09:02:59;;;;;;;16.37;14.87;;;6.30;99.90;;;;;;5024430;28;20532;-68
2021/04/13 09:05:27;;;;;;;14.40;13.00;;;6.70;99.90;;;;;;5028866;28;20441;-68
2021/04/13 09:08:00;;;;;;;14.73;13.40;;;7.10;99.90;;;;;;5024299;28;20919;-69
2021/04/13 09:10:34;;;;;;;13.13;12.00;;;7.70;99.90;;;;;;5027797;28;20529;-68
2021/04/13 09:13:23;;;;;;;15.53;13.93;;;8.00;99.90;;;;;;5032249;28;20432;-69
2021/04/13 09:15:51;;;;;;;14.30;13.00;;;8.20;99.90;;;;;;5021262;28;20440;-68
2021/04/13 09:18:27;;;;;;;14.73;12.87;;;8.40;99.90;;;;;;5022683;28;20477;-69
2021/04/13 09:21:16;;;;;;;13.87;12.67;;;8.50;99.90;;;;;;5026301;28;20442;-68
2021/04/13 09:24:14;;;;;;;14.97;13.40;;;8.50;99.90;;;;;;5026314;28;20934;-68
2021/04/13 09:26:57;;;;;;;14.07;12.77;;;8.30;99.90;;;;;;5024389;28;20478;-68
2021/04/13 09:29:44;;;;;;;12.83;11.57;;;8.20;99.90;;;;;;5026266;28;20433;-68
2021/04/13 09:32:32;;;;;;;12.53;11.50;;;8.10;99.90;;;;;;5027649;28;20966;-68
2021/04/13 09:35:22;;;;;;;12.43;11.03;;;8.30;99.90;;;;;;5029325;28;20436;-69
2021/04/13 09:38:07;;;;;;;13.30;12.00;;;8.40;99.90;;;;;;5023210;28;20455;-69
2021/04/13 09:41:11;;;;;;;12.03;10.90;;;8.70;99.90;;;;;;5025016;28;20437;-68
2021/04/13 09:44:02;;;;;;;10.90;9.90;;;9.20;99.90;;;;;;5024404;28;20514;-69
2021/04/13 09:46:40;;;;;;;11.13;10.03;;;9.50;99.90;;;;;;5026129;28;20429;-68
2021/04/13 09:49:27;;;;;;;12.07;10.97;;;9.30;99.90;;;;;;5020423;28;20524;-69
2021/04/13 09:51:52;;;;;;;10.07;8.73;;;9.50;99.90;;;;;;5027115;28;20440;-68
2021/04/13 09:54:22;;;;;;;11.63;10.20;;;9.60;99.90;;;;;;5030261;28;20428;-68
2021/04/13 09:57:15;;;;;;;11.30;10.40;;;9.70;99.90;;;;;;5023299;28;20275;-68
2021/04/13 09:59:49;;;;;;;11.80;10.60;;;9.60;99.90;;;;;;5020426;28;20456;-69
2021/04/13 10:02:25;;;;;;;9.57;8.87;;;10.00;99.90;;;;;;5023530;28;20429;-70
2021/04/13 10:04:55;;;;;;;11.00;10.00;;;11.20;99.90;;;;;;5024695;28;20486;-68
2021/04/13 10:07:29;;;;;;;9.33;8.53;;;11.90;98.40;;;;;;5023029;28;20993;-68
2021/04/13 10:09:57;;;;;;;9.60;8.77;;;13.20;97.90;;;;;;5028339;28;20497;-68
2021/04/13 10:12:49;;;;;;;8.83;8.03;;;14.80;93.50;;;;;;5028156;28;20424;-67
2021/04/13 10:15:21;;;;;;;9.97;9.17;;;16.30;69.10;;;;;;5029253;28;20847;-67
2021/04/13 10:17:52;;;;;;;10.40;9.60;;;17.80;63.20;;;;;;5024174;28;20484;-67
2021/04/13 10:20:27;;;;;;;12.17;11.10;;;18.70;66.10;;;;;;5020654;28;20479;-67
2021/04/13 10:23:11;;;;;;;10.50;9.70;;;17.70;62.90;;;;;;5025765;28;20479;-67
2021/04/13 10:25:58;;;;;;;10.73;10.03;;;15.70;55.20;;;;;;5026073;28;20536;-67
2021/04/13 10:28:40;;;;;;;11.20;10.30;;;13.60;69.10;;;;;;5021959;28;20488;-68
2021/04/13 10:31:22;;;;;;;10.53;9.73;;;12.50;72.20;;;;;;5019741;28;20448;-67
2021/04/13 10:34:25;;;;;;;11.07;10.10;;;11.70;75.00;;;;;;5028305;28;20436;-66
2021/04/13 10:37:09;;;;;;;10.83;9.97;;;11.20;77.20;;;;;;5027167;28;20448;-66
2021/04/13 10:39:52;;;;;;;10.67;9.73;;;10.80;76.40;;;;;;5024876;28;20513;-66
2021/04/13 10:42:46;;;;;;;11.73;9.60;;;11.30;77.90;;;;;;5022290;28;20439;-66
2021/04/13 10:45:42;;;;;;;10.27;9.23;;;12.70;74.60;;;;;;5021712;28;20432;-68
2021/04/13 10:48:42;;;;;;;10.83;9.90;;;12.70;70.20;;;;;;5027162;28;20966;-68
2021/04/13 10:51:24;;;;;;;9.47;8.67;;;12.80;68.60;;;;;;5022809;28;20444;-65
2021/04/13 10:54:29;;;;;;;9.40;8.50;;;12.20;71.00;;;;;;5023940;28;20432;-66
2021/04/13 10:57:04;;;;;;;10.80;9.80;;;11.90;72.80;;;;;;5007059;28;20811;-68
2021/04/13 11:00:07;;;;;;;11.07;10.10;;;13.70;69.70;;;;;;5020537;28;20996;-68
2021/04/13 11:03:00;;;;;;;9.23;8.33;;;16.20;67.40;;;;;;5022702;28;20436;-67
2021/04/13 11:05:25;;;;;;;8.97;8.17;;;18.40;56.20;;;;;;5024010;28;21129;-67
2021/04/13 11:07:57;;;;;;;8.27;7.57;;;19.70;48.60;;;;;;5018445;28;20858;-66
2021/04/13 11:10:50;;;;;;;7.60;7.10;;;20.40;45.80;;;;;;5022689;28;20182;-66
2021/04/13 11:13:33;;;;;;;8.60;7.73;;;21.10;41.60;;;;;;5024029;28;20442;-67
2021/04/13 11:16:36;;;;;;;7.03;6.53;;;21.70;39.00;;;;;;5024088;28;20656;-67
2021/04/13 11:19:18;;;;;;;8.83;8.23;;;23.00;35.10;;;;;;4991458;28;20459;-66
2021/04/13 11:22:05;;;;;;;7.60;7.07;;;23.40;33.60;;;;;;5032495;28;20987;-68
2021/04/13 11:25:15;;;;;;;8.43;7.83;;;21.50;35.40;;;;;;5029907;28;20502;-66
2021/04/13 11:28:17;;;;;;;8.87;7.20;;;18.40;39.60;;;;;;4935242;29;20461;-67
2021/04/13 11:31:19;;;;;;;7.50;7.00;;;16.20;39.80;;;;;;4936950;29;20519;-71
2021/04/13 11:34:03;;;;;;;7.53;7.00;;;14.50;42.40;;;;;;5026304;28;20496;-66
2021/04/13 11:36:41;;;;;;;8.00;7.30;;;14.50;42.60;;;;;;5026395;28;20440;-66
2021/04/13 11:39:39;;;;;;;8.33;7.63;;;15.90;43.20;;;;;;5027170;28;20486;-66
2021/04/13 11:42:23;;;;;;;7.47;6.83;;;19.00;40.00;;;;;;5029193;28;20471;-66
2021/04/13 11:45:05;;;;;;;8.00;7.40;;;21.00;39.60;;;;;;5029808;28;20428;-67
2021/04/13 11:48:01;;;;;;;9.03;8.33;;;23.20;33.10;;;;;;5023563;28;20452;-67
2021/04/13 11:50:53;;;;;;;8.10;7.50;;;23.10;30.30;;;;;;5027676;28;20428;-67
2021/04/13 11:53:33;;;;;;;6.90;6.40;;;22.90;30.70;;;;;;5027908;28;20962;-67
2021/04/13 11:56:00;;;;;;;7.57;6.87;;;24.40;29.80;;;;;;5027064;28;20441;-66
2021/04/13 11:58:32;;;;;;;7.70;7.00;;;23.20;29.90;;;;;;5027360;28;20461;-66
2021/04/13 12:01:13;;;;;;;8.47;7.87;;;20.70;32.20;;;;;;5032165;28;20478;-67
2021/04/13 12:03:59;;;;;;;7.70;7.20;;;17.50;35.10;;;;;;5033568;28;20980;-67
2021/04/13 12:06:46;;;;;;;8.17;7.67;;;17.00;38.00;;;;;;5028283;28;20429;-67
2021/04/13 12:09:44;;;;;;;9.20;8.50;;;19.50;37.30;;;;;;5024122;28;20437;-66
2021/04/13 12:12:31;;;;;;;8.43;7.83;;;18.60;36.50;;;;;;5016821;28;20441;-66
2021/04/13 12:15:03;;;;;;;8.83;8.13;;;16.30;39.80;;;;;;5031848;28;20803;-67
2021/04/13 12:17:42;;;;;;;8.47;7.87;;;14.70;42.40;;;;;;5031208;28;20529;-66
2021/04/13 12:20:17;;;;;;;6.93;6.33;;;13.90;44.20;;;;;;5031576;28;20541;-66
2021/04/13 12:22:43;;;;;;;8.80;8.13;;;16.00;42.90;;;;;;5031809;28;20433;-67
2021/04/13 12:25:35;;;;;;;8.53;7.77;;;18.40;40.20;;;;;;5032507;28;20425;-68
2021/04/13 12:28:13;;;;;;;9.43;7.30;;;20.90;37.60;;;;;;5029175;28;20487;-66
2021/04/13 12:30:41;;;;;;;8.60;8.00;;;22.80;35.00;;;;;;5025217;28;20436;-67
2021/04/13 12:33:26;;;;;;;8.23;7.53;;;22.40;34.60;;;;;;5029081;28;20479;-67
2021/04/13 12:35:56;;;;;;;8.13;7.53;;;22.70;35.30;;;;;;5028252;28;20429;-67
2021/04/13 12:38:45;;;;;;;8.10;7.60;;;23.20;33.40;;;;;;5027152;28;20460;-66
2021/04/13 12:41:25;;;;;;;8.07;7.43;;;22.40;33.60;;;;;;5029934;28;20985;-66
2021/04/13 12:43:52;;;;;;;6.90;6.40;;;20.20;35.10;;;;;;5028569;28;20422;-67
2021/04/13 12:46:26;;;;;;;8.73;8.03;;;18.80;37.20;;;;;;5025922;28;20485;-67
2021/04/13 12:48:54;;;;;;;6.70;6.30;;;19.30;37.40;;;;;;5028706;28;20801;-68
2021/04/13 12:51:32;;;;;;;7.33;6.63;;;20.80;35.40;;;;;;5031249;28;20431;-68
2021/04/13 12:54:37;;;;;;;5.93;5.43;;;21.20;34.80;;;;;;5025607;28;20474;-68
2021/04/13 12:57:08;;;;;;;6.60;6.10;;;22.60;32.40;;;;;;4937592;29;20468;-66
2021/04/13 12:59:35;;;;;;;6.40;6.00;;;24.40;30.60;;;;;;4930248;29;20452;-68
2021/04/13 13:02:03;;;;;;;7.70;7.10;;;25.40;29.70;;;;;;4983733;28;20428;-67
2021/04/13 13:04:41;;;;;;;6.90;6.40;;;25.30;28.90;;;;;;5025025;28;20464;-68
2021/04/13 13:07:18;;;;;;;7.13;6.63;;;24.50;29.30;;;;;;5025292;28;20510;-68
2021/04/13 13:09:44;;;;;;;6.10;5.70;;;26.80;29.40;;;;;;5025510;28;20456;-67
2021/04/13 13:12:29;;;;;;;6.03;5.53;;;25.90;28.70;;;;;;5026393;28;20448;-67
2021/04/13 13:15:10;;;;;;;6.53;5.93;;;23.70;29.80;;;;;;5026717;28;20631;-68
2021/04/13 13:17:49;;;;;;;6.67;6.03;;;21.30;31.20;;;;;;5022549;28;20472;-67
2021/04/13 13:20:28;;;;;;;6.80;6.30;;;18.70;33.90;;;;;;5025551;28;20432;-66
2021/04/13 13:22:54;;;;;;;5.70;5.30;;;15.90;37.60;;;;;;5030181;28;20535;-69
2021/04/13 13:25:26;;;;;;;8.20;7.37;;;14.30;38.70;;;;;;5025405;28;20511;-68
2021/04/13 13:28:02;;;;;;;8.00;7.30;;;13.20;41.40;;;;;;5024351;28;20230;-66
2021/04/13 13:30:27;;;;;;;9.70;6.60;;;12.60;43.20;;;;;;5024103;28;20852;-67
2021/04/13 13:32:53;;;;;;;6.10;5.50;;;12.10;45.20;;;;;;5025859;28;20532;-66
2021/04/13 13:35:19;;;;;;;7.30;6.60;;;11.60;49.10;;;;;;5025004;28;20600;-66
2021/04/13 13:37:48;;;;;;;7.67;6.87;;;11.20;52.30;;;;;;5029438;28;20460;-67
2021/04/13 13:40:21;;;;;;;4.33;4.03;;;10.80;54.90;;;;;;5025083;28;20707;-66